Time;durP1;ratioP1;P1;durP2;ratioP2;P2;SDS_P1;SDS_P2;PMS_P1;PMS_P2;Temp;Humidity;BMP_temperature;BMP_pressure;BME280_temperature;BME280_humidity;BME280_pressure;Samples;Min_cycle;Max_cycle;Signal;HPM_P1;HPM_P2
2023/12/01 06:02:11;;;;;;;49.53;24.23;;;;;;;;;;5140862;23;20487;-72
2023/12/01 06:04:38;;;;;;;50.33;24.20;;;;;;;;;;4935944;29;20421;-72
2023/12/01 06:07:07;;;;;;;49.00;24.50;;;;;;;;;;4935912;29;20408;-72
2023/12/01 06:09:34;;;;;;;49.30;25.77;;;;;;;;;;4936585;29;20413;-73
2023/12/01 06:12:00;;;;;;;41.37;19.87;;;;;;;;;;4934294;29;20437;-72
2023/12/01 06:14:26;;;;;;;48.87;23.30;;;;;;;;;;4935512;29;20501;-72
2023/12/01 06:16:52;;;;;;;43.57;21.00;;;;;;;;;;4935735;29;20456;-72
2023/12/01 06:19:18;;;;;;;39.63;20.70;;;;;;;;;;4923478;29;20461;-72
2023/12/01 06:21:44;;;;;;;42.33;21.27;;;;;;;;;;4916620;29;20458;-72
2023/12/01 06:24:10;;;;;;;51.60;24.67;;;;;;;;;;4915196;29;20423;-72
2023/12/01 06:26:36;;;;;;;49.53;22.17;;;;;;;;;;4915067;29;20426;-72
2023/12/01 06:29:02;;;;;;;47.50;22.97;;;;;;;;;;4916040;29;20425;-72
2023/12/01 06:31:28;;;;;;;40.53;21.80;;;;;;;;;;4915023;29;20443;-72
2023/12/01 06:33:54;;;;;;;44.23;23.17;;;;;;;;;;4916415;29;20576;-72
2023/12/01 06:36:20;;;;;;;40.60;21.67;;;;;;;;;;4916810;29;20425;-72
2023/12/01 06:38:46;;;;;;;45.67;21.23;;;;;;;;;;4916483;29;20415;-72
2023/12/01 06:41:12;;;;;;;34.00;19.27;;;;;;;;;;4916396;29;20536;-72
2023/12/01 06:43:38;;;;;;;43.17;21.97;;;;;;;;;;4926644;29;20422;-72
2023/12/01 06:46:03;;;;;;;38.53;21.17;;;;;;;;;;4935837;29;20414;-72
2023/12/01 06:48:29;;;;;;;43.23;20.23;;;;;;;;;;4935349;29;20416;-72
2023/12/01 06:50:55;;;;;;;42.83;20.50;;;;;;;;;;4935896;29;20524;-73
2023/12/01 06:53:21;;;;;;;42.20;22.27;;;;;;;;;;4937846;29;20418;-72
2023/12/01 06:55:47;;;;;;;36.07;18.80;;;;;;;;;;4925979;29;20426;-72
2023/12/01 06:58:13;;;;;;;50.93;25.70;;;;;;;;;;4941217;29;20421;-72
2023/12/01 07:00:39;;;;;;;48.27;22.63;;;;;;;;;;4936646;29;20480;-72
2023/12/01 07:03:07;;;;;;;38.60;21.17;;;;;;;;;;4935082;29;20414;-72
2023/12/01 07:05:35;;;;;;;47.13;21.87;;;;;;;;;;4931683;29;20426;-71
2023/12/01 07:08:01;;;;;;;38.77;21.27;;;;;;;;;;4917237;29;20439;-72
2023/12/01 07:10:27;;;;;;;47.13;24.00;;;;;;;;;;4916035;29;20457;-72
2023/12/01 07:12:54;;;;;;;37.97;19.67;;;;;;;;;;4917676;29;20429;-72
2023/12/01 07:15:20;;;;;;;33.87;20.30;;;;;;;;;;4917023;29;20422;-71
2023/12/01 07:17:48;;;;;;;38.40;19.33;;;;;;;;;;4916391;29;20970;-71
2023/12/01 07:20:14;;;;;;;37.00;19.03;;;;;;;;;;4915956;29;20498;-71
2023/12/01 07:22:42;;;;;;;36.50;17.93;;;;;;;;;;4915867;29;20414;-71
2023/12/01 07:25:10;;;;;;;43.23;21.40;;;;;;;;;;4915664;29;20461;-71
2023/12/01 07:27:37;;;;;;;36.30;20.00;;;;;;;;;;4915793;29;20450;-71
2023/12/01 07:30:03;;;;;;;47.50;22.10;;;;;;;;;;4916407;29;20451;-71
2023/12/01 07:32:29;;;;;;;51.63;23.47;;;;;;;;;;4927158;29;20449;-72
2023/12/01 07:34:55;;;;;;;47.73;24.00;;;;;;;;;;4918833;29;20839;-70
2023/12/01 07:37:20;;;;;;;57.00;28.00;;;;;;;;;;4932146;29;20551;-72
2023/12/01 07:39:46;;;;;;;41.70;20.23;;;;;;;;;;4920980;29;20497;-71
2023/12/01 07:42:12;;;;;;;39.23;20.57;;;;;;;;;;4928613;29;20438;-69
2023/12/01 07:44:38;;;;;;;44.67;21.37;;;;;;;;;;4915709;29;20418;-70
2023/12/01 07:47:08;;;;;;;41.53;21.60;;;;;;;;;;4923154;29;20425;-70
2023/12/01 07:49:34;;;;;;;44.17;20.50;;;;;;;;;;4934240;29;20414;-70
2023/12/01 07:52:01;;;;;;;44.00;21.10;;;;;;;;;;4934677;29;20446;-70
2023/12/01 07:54:28;;;;;;;46.53;22.27;;;;;;;;;;4934729;29;20988;-70
2023/12/01 07:56:53;;;;;;;42.47;20.17;;;;;;;;;;4934535;29;20509;-71
2023/12/01 07:59:21;;;;;;;47.13;24.17;;;;;;;;;;4934177;29;20564;-71
2023/12/01 08:01:47;;;;;;;42.87;21.13;;;;;;;;;;4934509;29;20481;-71
2023/12/01 08:04:13;;;;;;;55.93;22.77;;;;;;;;;;4934898;29;20433;-71
2023/12/01 08:06:39;;;;;;;48.53;22.60;;;;;;;;;;4934860;29;20913;-71
2023/12/01 08:09:05;;;;;;;45.43;21.97;;;;;;;;;;4933867;29;20513;-71
2023/12/01 08:11:31;;;;;;;38.87;19.83;;;;;;;;;;4920020;29;20453;-71
2023/12/01 08:13:57;;;;;;;45.13;21.47;;;;;;;;;;4934348;29;20449;-71
2023/12/01 08:16:23;;;;;;;49.67;21.73;;;;;;;;;;4919333;29;20485;-71
2023/12/01 08:18:49;;;;;;;43.00;20.73;;;;;;;;;;4934421;29;20553;-70
2023/12/01 08:21:15;;;;;;;41.40;22.23;;;;;;;;;;4928503;29;20532;-70
2023/12/01 08:23:41;;;;;;;48.13;23.00;;;;;;;;;;4933749;29;20483;-70
2023/12/01 08:26:09;;;;;;;43.43;21.30;;;;;;;;;;4923642;29;20507;-71
2023/12/01 08:28:35;;;;;;;45.83;22.77;;;;;;;;;;4934371;29;20425;-71
2023/12/01 08:31:02;;;;;;;43.97;20.60;;;;;;;;;;4930838;29;20479;-74
2023/12/01 08:33:28;;;;;;;47.10;22.90;;;;;;;;;;4935484;29;20883;-74
2023/12/01 08:35:54;;;;;;;44.30;20.63;;;;;;;;;;4934573;29;20453;-72
2023/12/01 08:38:20;;;;;;;43.07;22.03;;;;;;;;;;4938241;29;20433;-72
2023/12/01 08:40:46;;;;;;;39.47;20.77;;;;;;;;;;4940637;29;21093;-73
2023/12/01 08:43:12;;;;;;;38.30;19.80;;;;;;;;;;4939214;29;20425;-75
2023/12/01 08:45:38;;;;;;;40.60;21.10;;;;;;;;;;4935289;29;20419;-72
2023/12/01 08:48:04;;;;;;;42.10;21.60;;;;;;;;;;4940007;29;20445;-75
2023/12/01 08:50:30;;;;;;;46.20;22.60;;;;;;;;;;4941817;29;20447;-75
2023/12/01 08:52:56;;;;;;;42.60;19.90;;;;;;;;;;4941587;29;20436;-74
2023/12/01 08:55:22;;;;;;;40.07;20.20;;;;;;;;;;4942224;29;20418;-74
2023/12/01 08:57:48;;;;;;;46.27;22.00;;;;;;;;;;4939582;29;20422;-72
2023/12/01 09:00:20;;;;;;;45.10;22.77;;;;;;;;;;4939767;29;20501;-74
2023/12/01 09:02:46;;;;;;;49.90;22.30;;;;;;;;;;4940391;29;20426;-74
2023/12/01 09:05:12;;;;;;;53.50;23.30;;;;;;;;;;4939934;29;20953;-76
2023/12/01 09:07:38;;;;;;;59.50;27.33;;;;;;;;;;4937595;29;20418;-75
2023/12/01 09:10:04;;;;;;;41.30;19.17;;;;;;;;;;4939281;29;20429;-75
2023/12/01 09:12:30;;;;;;;46.40;23.17;;;;;;;;;;4939240;29;20445;-74
2023/12/01 09:14:56;;;;;;;50.27;22.07;;;;;;;;;;4946733;29;20954;-74
2023/12/01 09:17:23;;;;;;;40.13;20.50;;;;;;;;;;4951447;29;20422;-73
2023/12/01 09:19:49;;;;;;;34.87;19.70;;;;;;;;;;4945942;29;20540;-73
2023/12/01 09:22:16;;;;;;;45.70;22.50;;;;;;;;;;4942889;29;20917;-73
2023/12/01 09:24:42;;;;;;;44.30;21.50;;;;;;;;;;4936495;29;20418;-74
2023/12/01 09:27:08;;;;;;;46.60;22.07;;;;;;;;;;4936500;29;20428;-74
2023/12/01 09:29:34;;;;;;;41.00;20.53;;;;;;;;;;4936810;29;20905;-74
2023/12/01 09:32:01;;;;;;;38.73;19.93;;;;;;;;;;4937055;29;20461;-74
2023/12/01 09:34:27;;;;;;;38.17;21.70;;;;;;;;;;4936836;29;20425;-74
2023/12/01 09:36:53;;;;;;;52.60;23.10;;;;;;;;;;4936786;29;20445;-74
2023/12/01 09:39:19;;;;;;;49.50;24.30;;;;;;;;;;4937639;29;20422;-75
2023/12/01 09:41:45;;;;;;;47.63;21.83;;;;;;;;;;4937663;29;21051;-75
2023/12/01 09:44:11;;;;;;;39.23;19.73;;;;;;;;;;4929256;29;20413;-75
2023/12/01 09:46:37;;;;;;;50.50;21.27;;;;;;;;;;4936565;29;20414;-73
2023/12/01 09:49:04;;;;;;;44.13;20.83;;;;;;;;;;4934490;29;20421;-73
2023/12/01 09:51:31;;;;;;;40.43;21.20;;;;;;;;;;4935766;29;20442;-72
2023/12/01 09:53:58;;;;;;;47.93;23.77;;;;;;;;;;4936047;29;20948;-72
2023/12/01 09:56:24;;;;;;;46.93;22.50;;;;;;;;;;4935898;29;20429;-72
2023/12/01 09:58:51;;;;;;;46.67;19.77;;;;;;;;;;4935424;29;20426;-74
2023/12/01 10:01:17;;;;;;;46.83;21.43;;;;;;;;;;4934535;29;21001;-71
2023/12/01 10:03:43;;;;;;;44.30;22.33;;;;;;;;;;4935837;29;20418;-72
2023/12/01 10:06:09;;;;;;;44.50;21.20;;;;;;;;;;4935518;29;20424;-73
2023/12/01 10:08:36;;;;;;;56.90;24.20;;;;;;;;;;4935337;29;20426;-72
2023/12/01 10:11:17;;;;;;;47.20;23.53;;;;;;;;;;4934998;29;20508;-72
2023/12/01 10:13:43;;;;;;;41.37;20.57;;;;;;;;;;4931385;29;20437;-72
2023/12/01 10:16:09;;;;;;;38.87;20.17;;;;;;;;;;4934539;29;20797;-72
2023/12/01 10:18:35;;;;;;;40.90;21.50;;;;;;;;;;4935287;29;20585;-71
2023/12/01 10:21:07;;;;;;;37.70;19.50;;;;;;;;;;4927344;29;20478;-73
2023/12/01 10:23:33;;;;;;;42.50;21.07;;;;;;;;;;4935589;29;20553;-71
2023/12/01 10:26:03;;;;;;;40.23;19.23;;;;;;;;;;4935553;29;20426;-73
2023/12/01 10:28:43;;;;;;;48.50;22.27;;;;;;;;;;4934730;29;20932;-72
2023/12/01 10:31:09;;;;;;;45.57;22.50;;;;;;;;;;4932946;29;20807;-72
2023/12/01 10:33:36;;;;;;;47.30;22.70;;;;;;;;;;4934956;29;20432;-72
2023/12/01 10:36:09;;;;;;;42.20;20.53;;;;;;;;;;4934894;29;20424;-73
2023/12/01 10:38:36;;;;;;;45.20;22.17;;;;;;;;;;4934296;29;20421;-73
2023/12/01 10:41:05;;;;;;;58.37;24.53;;;;;;;;;;4934008;29;20560;-73
2023/12/01 10:43:31;;;;;;;54.03;25.77;;;;;;;;;;4930650;29;20527;-72
2023/12/01 10:46:00;;;;;;;48.93;21.70;;;;;;;;;;4932583;29;20434;-72
2023/12/01 10:48:27;;;;;;;56.97;24.70;;;;;;;;;;4928552;29;20842;-71
2023/12/01 10:50:54;;;;;;;58.63;26.63;;;;;;;;;;4934519;29;20453;-72
2023/12/01 10:53:24;;;;;;;58.97;25.83;;;;;;;;;;4934828;29;20496;-72
2023/12/01 10:55:51;;;;;;;56.27;24.73;;;;;;;;;;4934668;29;20410;-73
2023/12/01 10:58:23;;;;;;;52.50;24.77;;;;;;;;;;4934236;29;20433;-73
2023/12/01 11:00:50;;;;;;;56.30;24.37;;;;;;;;;;4934091;29;20842;-74
2023/12/01 11:03:18;;;;;;;56.13;26.83;;;;;;;;;;4932783;29;20473;-73
2023/12/01 11:05:45;;;;;;;66.70;27.50;;;;;;;;;;4934578;29;20421;-73
2023/12/01 11:08:30;;;;;;;59.83;27.73;;;;;;;;;;4933931;29;20757;-73
2023/12/01 11:11:07;;;;;;;58.03;25.40;;;;;;;;;;4934394;29;20441;-72
2023/12/01 11:13:52;;;;;;;59.00;26.07;;;;;;;;;;4934906;29;20901;-71
2023/12/01 11:16:18;;;;;;;59.73;27.30;;;;;;;;;;4932756;29;20424;-71
2023/12/01 11:18:44;;;;;;;61.27;26.67;;;;;;;;;;4934210;29;20417;-71
2023/12/01 11:21:10;;;;;;;68.13;29.60;;;;;;;;;;4934945;29;20480;-70
2023/12/01 11:23:36;;;;;;;62.03;27.30;;;;;;;;;;4934075;29;20735;-71
2023/12/01 11:26:05;;;;;;;63.83;27.40;;;;;;;;;;4934093;29;20854;-72
2023/12/01 11:31:08;;;;;;;60.17;26.90;;;;;;;;;;4938839;29;20533;-72
2023/12/01 11:33:37;;;;;;;67.87;27.37;;;;;;;;;;4945908;29;20421;-73
2023/12/01 11:36:21;;;;;;;61.70;27.80;;;;;;;;;;4946285;29;20507;-73
2023/12/01 11:41:41;;;;;;;57.57;25.50;;;;;;;;;;4934887;29;20465;-71
2023/12/01 11:44:10;;;;;;;68.77;26.87;;;;;;;;;;4934328;29;20430;-72
2023/12/01 11:46:39;;;;;;;67.70;30.80;;;;;;;;;;4934549;29;20932;-72
2023/12/01 11:49:09;;;;;;;69.90;29.70;;;;;;;;;;4933891;29;20798;-72
2023/12/01 11:51:35;;;;;;;66.97;27.00;;;;;;;;;;4934219;29;20526;-72
2023/12/01 11:54:02;;;;;;;64.10;28.67;;;;;;;;;;4934298;29;20778;-72
2023/12/01 11:56:29;;;;;;;68.57;28.70;;;;;;;;;;4933289;29;20442;-72
2023/12/01 11:58:55;;;;;;;65.63;27.60;;;;;;;;;;4934745;29;20480;-71
2023/12/01 12:01:24;;;;;;;67.13;27.90;;;;;;;;;;4927032;29;20484;-71
2023/12/01 12:03:53;;;;;;;72.10;30.70;;;;;;;;;;4935281;29;20414;-72
2023/12/01 12:06:20;;;;;;;68.80;28.47;;;;;;;;;;4933930;29;20421;-72
2023/12/01 12:08:47;;;;;;;70.97;28.73;;;;;;;;;;4934222;29;20410;-73
2023/12/01 12:11:13;;;;;;;64.80;28.53;;;;;;;;;;4931870;29;20473;-72
2023/12/01 12:13:39;;;;;;;68.93;29.97;;;;;;;;;;4960056;23;20495;-75
2023/12/01 12:16:05;;;;;;;59.00;27.27;;;;;;;;;;4938199;29;20426;-75
2023/12/01 12:18:32;;;;;;;66.70;28.47;;;;;;;;;;4937220;29;20731;-75
2023/12/01 12:21:05;;;;;;;76.20;29.53;;;;;;;;;;4938081;29;20989;-74
2023/12/01 12:23:31;;;;;;;66.43;28.27;;;;;;;;;;4939201;29;20426;-75
2023/12/01 12:26:20;;;;;;;51.70;24.77;;;;;;;;;;4918454;29;20874;-74
2023/12/01 12:28:52;;;;;;;60.43;27.20;;;;;;;;;;4926137;29;20419;-74
2023/12/01 12:31:18;;;;;;;65.03;27.40;;;;;;;;;;4918427;29;20415;-76
2023/12/01 12:33:44;;;;;;;67.80;28.53;;;;;;;;;;4919350;29;20450;-76
2023/12/01 12:36:13;;;;;;;57.90;28.03;;;;;;;;;;4934735;29;20826;-74
2023/12/01 12:38:39;;;;;;;66.27;27.47;;;;;;;;;;4923105;29;20434;-74
2023/12/01 12:41:21;;;;;;;68.47;27.60;;;;;;;;;;4921593;29;20558;-76
2023/12/01 12:43:50;;;;;;;75.50;31.70;;;;;;;;;;4922530;29;20474;-76
2023/12/01 12:46:16;;;;;;;73.27;28.93;;;;;;;;;;4918418;29;20918;-74
2023/12/01 12:48:42;;;;;;;67.90;27.13;;;;;;;;;;4916383;29;20430;-73
2023/12/01 12:51:08;;;;;;;71.53;27.80;;;;;;;;;;4917945;29;20509;-74
2023/12/01 12:53:34;;;;;;;62.17;26.83;;;;;;;;;;4917747;29;20537;-74
2023/12/01 12:56:08;;;;;;;59.27;26.77;;;;;;;;;;4917933;29;21739;-74
2023/12/01 12:58:34;;;;;;;65.27;27.77;;;;;;;;;;4915804;29;20926;-74
2023/12/01 13:01:00;;;;;;;62.90;27.90;;;;;;;;;;4917537;29;20537;-75
2023/12/01 13:03:26;;;;;;;69.83;29.93;;;;;;;;;;4918453;29;20462;-73
2023/12/01 13:05:52;;;;;;;57.40;27.40;;;;;;;;;;4921077;29;20422;-75
2023/12/01 13:08:18;;;;;;;58.53;26.10;;;;;;;;;;4919750;29;20513;-77
2023/12/01 13:10:44;;;;;;;58.50;26.50;;;;;;;;;;4917208;29;20433;-76
2023/12/01 13:13:10;;;;;;;76.53;34.22;;;;;;;;;;4916054;29;20423;-78
2023/12/01 13:15:36;;;;;;;70.30;31.43;;;;;;;;;;4917339;29;20183;-78
2023/12/01 13:18:02;;;;;;;66.57;30.20;;;;;;;;;;4917164;29;20838;-76
2023/12/01 13:20:28;;;;;;;55.60;25.33;;;;;;;;;;4921201;29;20803;-75
2023/12/01 13:22:54;;;;;;;74.03;29.33;;;;;;;;;;4920512;29;20454;-72
2023/12/01 13:25:20;;;;;;;74.93;31.83;;;;;;;;;;4917713;29;20910;-76
2023/12/01 13:27:46;;;;;;;70.03;26.23;;;;;;;;;;4917263;29;20426;-75
2023/12/01 13:30:12;;;;;;;71.90;28.27;;;;;;;;;;4917868;29;20430;-74
2023/12/01 13:32:38;;;;;;;83.33;32.83;;;;;;;;;;4917779;29;20430;-75
2023/12/01 13:35:04;;;;;;;89.07;34.83;;;;;;;;;;4916128;29;20818;-76
2023/12/01 13:37:30;;;;;;;83.97;30.10;;;;;;;;;;4917728;29;20446;-74
2023/12/01 13:39:56;;;;;;;72.10;31.50;;;;;;;;;;4916847;29;20474;-74
2023/12/01 13:42:23;;;;;;;79.27;31.20;;;;;;;;;;4917070;29;20418;-72
2023/12/01 13:44:49;;;;;;;70.47;29.10;;;;;;;;;;4916174;29;20449;-74
2023/12/01 13:47:15;;;;;;;94.50;35.03;;;;;;;;;;4915185;29;20437;-74
2023/12/01 13:49:40;;;;;;;76.73;32.43;;;;;;;;;;4917575;29;20509;-75
2023/12/01 13:52:06;;;;;;;81.20;29.83;;;;;;;;;;4916532;29;20430;-75
2023/12/01 13:54:32;;;;;;;80.20;32.30;;;;;;;;;;4916826;29;20438;-76
2023/12/01 13:56:58;;;;;;;75.27;31.73;;;;;;;;;;4916239;29;20989;-75
2023/12/01 13:59:24;;;;;;;97.97;34.33;;;;;;;;;;4909307;29;20422;-75
2023/12/01 14:01:50;;;;;;;76.13;32.27;;;;;;;;;;4916657;29;20419;-75
2023/12/01 14:04:16;;;;;;;88.53;33.73;;;;;;;;;;4916751;29;20533;-75
2023/12/01 14:06:42;;;;;;;79.43;34.53;;;;;;;;;;4916361;29;20485;-71
2023/12/01 14:09:09;;;;;;;81.70;31.80;;;;;;;;;;4916251;29;20422;-75
2023/12/01 14:11:35;;;;;;;81.53;32.57;;;;;;;;;;4923800;29;20430;-74
2023/12/01 14:14:00;;;;;;;87.00;33.10;;;;;;;;;;4922232;29;20552;-74
2023/12/01 14:16:26;;;;;;;75.43;30.83;;;;;;;;;;4916459;29;20422;-73
2023/12/01 14:18:53;;;;;;;85.67;34.00;;;;;;;;;;4909613;29;20945;-74
2023/12/01 14:21:19;;;;;;;98.20;36.70;;;;;;;;;;4909958;29;20569;-74
2023/12/01 14:23:45;;;;;;;86.77;33.57;;;;;;;;;;4921220;29;20529;-73
2023/12/01 14:26:11;;;;;;;86.83;34.30;;;;;;;;;;4914231;29;20430;-73
2023/12/01 14:28:37;;;;;;;91.00;35.67;;;;;;;;;;4915368;29;20418;-73
2023/12/01 14:31:03;;;;;;;82.93;32.20;;;;;;;;;;4916097;29;20457;-74
2023/12/01 14:33:29;;;;;;;97.27;35.60;;;;;;;;;;4924249;29;20453;-74
2023/12/01 14:35:55;;;;;;;101.63;37.03;;;;;;;;;;4914259;29;20426;-74
2023/12/01 14:38:21;;;;;;;89.43;35.23;;;;;;;;;;4916035;29;20434;-74
2023/12/01 14:40:47;;;;;;;97.97;36.47;;;;;;;;;;4915680;29;20513;-76
2023/12/01 14:43:13;;;;;;;88.23;34.50;;;;;;;;;;4916182;29;20442;-73
2023/12/01 14:45:41;;;;;;;88.87;34.07;;;;;;;;;;4914825;29;20443;-74
2023/12/01 14:48:07;;;;;;;108.57;40.60;;;;;;;;;;4914468;29;20469;-74
2023/12/01 14:50:33;;;;;;;98.87;36.00;;;;;;;;;;4915611;29;20918;-74
2023/12/01 14:52:59;;;;;;;103.13;35.07;;;;;;;;;;4915794;29;20426;-74
2023/12/01 14:55:25;;;;;;;81.80;31.73;;;;;;;;;;4915787;29;20423;-75
2023/12/01 14:57:51;;;;;;;94.80;36.23;;;;;;;;;;4915526;29;20433;-74
2023/12/01 15:00:17;;;;;;;104.00;36.50;;;;;;;;;;4915668;29;20569;-74
2023/12/01 15:02:43;;;;;;;96.93;34.97;;;;;;;;;;4914311;29;20934;-74
2023/12/01 15:05:09;;;;;;;95.37;36.40;;;;;;;;;;4915309;29;20454;-74
2023/12/01 15:07:35;;;;;;;117.80;36.70;;;;;;;;;;4913167;29;20434;-74
2023/12/01 15:10:01;;;;;;;90.33;36.60;;;;;;;;;;4918461;29;20497;-74
2023/12/01 15:12:27;;;;;;;102.13;38.63;;;;;;;;;;4914131;29;20493;-74
2023/12/01 15:14:53;;;;;;;121.47;40.23;;;;;;;;;;4915209;29;20462;-74
2023/12/01 15:17:19;;;;;;;99.80;36.60;;;;;;;;;;4915088;29;20461;-74
2023/12/01 15:19:46;;;;;;;106.00;35.40;;;;;;;;;;4915457;29;20466;-74
2023/12/01 15:22:12;;;;;;;97.07;34.13;;;;;;;;;;4914039;29;20426;-74
2023/12/01 15:24:38;;;;;;;101.63;34.07;;;;;;;;;;4914875;29;20446;-75
2023/12/01 15:27:04;;;;;;;98.93;36.57;;;;;;;;;;4913892;29;20540;-75
2023/12/01 15:29:30;;;;;;;91.67;35.20;;;;;;;;;;4915048;29;20427;-74
2023/12/01 15:31:56;;;;;;;84.33;31.47;;;;;;;;;;4917369;29;20453;-74
2023/12/01 15:34:22;;;;;;;87.17;31.00;;;;;;;;;;4916616;29;20446;-74
2023/12/01 15:36:48;;;;;;;105.90;34.17;;;;;;;;;;4916708;29;20423;-74
2023/12/01 15:39:14;;;;;;;101.30;35.67;;;;;;;;;;4916013;29;20922;-74
2023/12/01 15:41:40;;;;;;;85.73;32.87;;;;;;;;;;4920261;29;20474;-74
2023/12/01 15:44:07;;;;;;;87.17;33.73;;;;;;;;;;4917884;29;20450;-70
2023/12/01 15:46:33;;;;;;;80.23;31.73;;;;;;;;;;4919341;29;20422;-77
2023/12/01 15:48:59;;;;;;;92.90;35.50;;;;;;;;;;4919066;29;20426;-73
2023/12/01 15:51:25;;;;;;;93.50;32.43;;;;;;;;;;4918417;29;20774;-73
2023/12/01 15:53:52;;;;;;;105.90;38.00;;;;;;;;;;4920086;29;20454;-75
2023/12/01 15:56:18;;;;;;;103.03;35.73;;;;;;;;;;4918812;29;20437;-74
2023/12/01 15:58:43;;;;;;;100.40;33.27;;;;;;;;;;4920584;29;20473;-74
2023/12/01 16:01:09;;;;;;;82.83;30.67;;;;;;;;;;4913097;29;20562;-74
2023/12/01 16:03:36;;;;;;;108.83;39.00;;;;;;;;;;4909477;29;20857;-75
2023/12/01 16:06:01;;;;;;;96.30;36.40;;;;;;;;;;4918667;29;20497;-75
2023/12/01 16:08:28;;;;;;;103.40;34.27;;;;;;;;;;4902353;29;20423;-75
2023/12/01 16:10:54;;;;;;;112.80;35.83;;;;;;;;;;4902918;29;20911;-75
2023/12/01 16:13:20;;;;;;;102.53;36.47;;;;;;;;;;4913079;29;20477;-75
2023/12/01 16:15:46;;;;;;;92.43;31.57;;;;;;;;;;4918778;29;20414;-75
2023/12/01 16:18:12;;;;;;;114.43;36.10;;;;;;;;;;4909159;29;20763;-75
2023/12/01 16:20:41;;;;;;;100.53;34.00;;;;;;;;;;4915803;29;20461;-75
2023/12/01 16:23:07;;;;;;;114.30;36.63;;;;;;;;;;4913460;29;20458;-75
2023/12/01 16:25:33;;;;;;;107.47;37.17;;;;;;;;;;4899850;29;20899;-75
2023/12/01 16:28:00;;;;;;;98.83;31.13;;;;;;;;;;4899654;29;20526;-75
2023/12/01 16:30:27;;;;;;;102.70;33.17;;;;;;;;;;4899858;29;20477;-75
2023/12/01 16:32:53;;;;;;;113.03;33.30;;;;;;;;;;4899558;29;20411;-75
2023/12/01 16:35:19;;;;;;;92.17;32.67;;;;;;;;;;4903751;29;20410;-75
2023/12/01 16:37:45;;;;;;;108.13;36.10;;;;;;;;;;4918311;29;20414;-75
2023/12/01 16:40:11;;;;;;;94.33;31.30;;;;;;;;;;4918451;29;20472;-75
2023/12/01 16:42:37;;;;;;;110.13;35.77;;;;;;;;;;4918425;29;20905;-75
2023/12/01 16:45:03;;;;;;;99.67;34.03;;;;;;;;;;4918952;29;20434;-75
2023/12/01 16:47:29;;;;;;;107.23;34.37;;;;;;;;;;4916609;29;20986;-76
2023/12/01 16:49:55;;;;;;;105.60;36.10;;;;;;;;;;4918179;29;20554;-75
2023/12/01 16:52:22;;;;;;;103.30;33.07;;;;;;;;;;4917004;29;20445;-75
2023/12/01 16:54:49;;;;;;;115.73;36.17;;;;;;;;;;4923566;29;20447;-75
2023/12/01 16:57:15;;;;;;;108.47;35.53;;;;;;;;;;4924224;29;20415;-75
2023/12/01 16:59:41;;;;;;;117.73;37.07;;;;;;;;;;4918185;29;20472;-76
2023/12/01 17:02:07;;;;;;;104.57;34.80;;;;;;;;;;4918719;29;20447;-75
2023/12/01 17:04:33;;;;;;;132.10;36.30;;;;;;;;;;4918150;29;20434;-75
2023/12/01 17:06:59;;;;;;;115.43;36.63;;;;;;;;;;4913740;29;20865;-75
2023/12/01 17:09:25;;;;;;;105.07;32.60;;;;;;;;;;4899061;29;20471;-75
2023/12/01 17:11:51;;;;;;;109.37;32.03;;;;;;;;;;4903494;29;20431;-75
2023/12/01 17:14:17;;;;;;;113.47;39.90;;;;;;;;;;4906845;29;20542;-75
2023/12/01 17:16:43;;;;;;;104.13;31.33;;;;;;;;;;4898268;29;20424;-75
2023/12/01 17:19:09;;;;;;;123.90;38.17;;;;;;;;;;4902128;29;20419;-75
2023/12/01 17:21:35;;;;;;;109.67;34.60;;;;;;;;;;4911990;29;20886;-75
2023/12/01 17:24:01;;;;;;;126.60;37.63;;;;;;;;;;4908036;29;20446;-75
2023/12/01 17:26:27;;;;;;;96.73;30.43;;;;;;;;;;4917592;29;20814;-75
2023/12/01 17:28:53;;;;;;;87.53;31.57;;;;;;;;;;4914626;29;20426;-75
2023/12/01 17:31:19;;;;;;;100.20;32.60;;;;;;;;;;4916145;29;20452;-75
2023/12/01 17:33:45;;;;;;;99.50;32.40;;;;;;;;;;4897926;29;20538;-75
2023/12/01 17:36:11;;;;;;;96.33;31.33;;;;;;;;;;4898827;29;20426;-75
2023/12/01 17:38:37;;;;;;;99.47;32.77;;;;;;;;;;4898871;29;20420;-75
2023/12/01 17:41:03;;;;;;;89.27;29.60;;;;;;;;;;4922908;29;20977;-75
2023/12/01 17:43:29;;;;;;;89.63;30.47;;;;;;;;;;4906291;29;20872;-75
2023/12/01 17:45:55;;;;;;;95.23;31.97;;;;;;;;;;4912479;29;20412;-75
2023/12/01 17:48:21;;;;;;;92.57;29.23;;;;;;;;;;4902087;29;20419;-75
2023/12/01 17:50:47;;;;;;;102.40;31.60;;;;;;;;;;4899645;29;20427;-76
2023/12/01 17:53:13;;;;;;;99.80;33.77;;;;;;;;;;4914170;29;20454;-75
2023/12/01 17:55:40;;;;;;;85.70;29.27;;;;;;;;;;4910156;29;20431;-75
2023/12/01 17:58:06;;;;;;;90.13;28.90;;;;;;;;;;4912568;29;20431;-75
2023/12/01 18:00:32;;;;;;;92.50;30.60;;;;;;;;;;4915796;29;20494;-75
2023/12/01 18:02:58;;;;;;;107.53;34.60;;;;;;;;;;4903774;29;20829;-75
2023/12/01 18:05:24;;;;;;;79.53;25.83;;;;;;;;;;4896807;29;20506;-75
2023/12/01 18:07:50;;;;;;;86.40;32.27;;;;;;;;;;4908686;29;20990;-75
2023/12/01 18:10:16;;;;;;;86.73;29.53;;;;;;;;;;4896958;29;20464;-75
2023/12/01 18:12:42;;;;;;;92.60;31.67;;;;;;;;;;4900476;29;20518;-75
2023/12/01 18:15:08;;;;;;;85.50;29.97;;;;;;;;;;4966220;23;20936;-73
2023/12/01 18:17:34;;;;;;;93.20;30.97;;;;;;;;;;4936376;29;20733;-74
2023/12/01 18:20:00;;;;;;;87.43;28.27;;;;;;;;;;4936461;29;20473;-72
2023/12/01 18:22:26;;;;;;;92.03;28.50;;;;;;;;;;4937929;29;20445;-75
2023/12/01 18:24:52;;;;;;;91.87;30.80;;;;;;;;;;4922870;29;20430;-75
2023/12/01 18:27:23;;;;;;;93.20;31.10;;;;;;;;;;4931620;29;20427;-74
2023/12/01 18:29:49;;;;;;;100.20;31.70;;;;;;;;;;4917577;29;20430;-72
2023/12/01 18:32:15;;;;;;;97.50;30.80;;;;;;;;;;4924239;29;20450;-71
2023/12/01 18:34:41;;;;;;;77.33;27.17;;;;;;;;;;4928284;29;20451;-73
2023/12/01 18:37:07;;;;;;;78.30;31.27;;;;;;;;;;4917262;29;20430;-72
2023/12/01 18:39:33;;;;;;;88.40;28.30;;;;;;;;;;4916685;29;20442;-72
2023/12/01 18:41:59;;;;;;;75.20;27.87;;;;;;;;;;4921871;29;20436;-74
2023/12/01 18:44:25;;;;;;;78.70;26.43;;;;;;;;;;4950381;29;20458;-74
2023/12/01 18:46:51;;;;;;;78.50;29.27;;;;;;;;;;4938459;29;20430;-73
2023/12/01 18:49:17;;;;;;;92.07;32.10;;;;;;;;;;4935831;29;20505;-74
2023/12/01 18:51:43;;;;;;;94.90;32.70;;;;;;;;;;4933082;29;20434;-73
2023/12/01 18:54:09;;;;;;;73.67;25.70;;;;;;;;;;4929567;29;20579;-73
2023/12/01 18:56:35;;;;;;;65.07;23.80;;;;;;;;;;4921124;29;20431;-73
2023/12/01 18:59:01;;;;;;;91.10;28.57;;;;;;;;;;4927439;29;20764;-74
2023/12/01 19:01:27;;;;;;;75.40;27.13;;;;;;;;;;4919694;29;20572;-74
2023/12/01 19:03:53;;;;;;;80.00;27.37;;;;;;;;;;4915506;29;20454;-74
2023/12/01 19:06:19;;;;;;;78.13;27.80;;;;;;;;;;4927477;29;20437;-74
2023/12/01 19:08:45;;;;;;;91.03;29.67;;;;;;;;;;4935680;29;20456;-74
2023/12/01 19:11:11;;;;;;;70.63;26.90;;;;;;;;;;4935635;29;20445;-74
2023/12/01 19:13:37;;;;;;;89.70;29.57;;;;;;;;;;4935245;29;20451;-74
2023/12/01 19:16:02;;;;;;;87.40;29.63;;;;;;;;;;4928026;29;20479;-76
2023/12/01 19:18:29;;;;;;;74.13;29.40;;;;;;;;;;4934076;29;20514;-75
2023/12/01 19:20:55;;;;;;;90.70;28.80;;;;;;;;;;4934123;29;20466;-75
2023/12/01 19:23:21;;;;;;;67.47;25.93;;;;;;;;;;4928802;29;20472;-74
2023/12/01 19:25:47;;;;;;;85.90;30.13;;;;;;;;;;4950417;29;20552;-75
2023/12/01 19:28:13;;;;;;;87.27;29.13;;;;;;;;;;4933582;29;20446;-76
2023/12/01 19:30:39;;;;;;;95.57;31.90;;;;;;;;;;4920294;29;20430;-76
2023/12/01 19:33:05;;;;;;;70.43;25.50;;;;;;;;;;4917359;29;20435;-76
2023/12/01 19:35:31;;;;;;;83.80;27.63;;;;;;;;;;4919918;29;20530;-76
2023/12/01 19:37:56;;;;;;;68.60;27.70;;;;;;;;;;4922743;29;20905;-75
2023/12/01 19:40:23;;;;;;;68.50;25.07;;;;;;;;;;4935686;29;20868;-76
2023/12/01 19:42:48;;;;;;;90.17;32.30;;;;;;;;;;4941804;29;20424;-75
2023/12/01 19:45:14;;;;;;;78.43;27.67;;;;;;;;;;4949502;29;20465;-76
2023/12/01 19:47:40;;;;;;;91.33;31.73;;;;;;;;;;4933864;29;20917;-76
2023/12/01 19:50:07;;;;;;;70.83;26.70;;;;;;;;;;4918542;29;20414;-75
2023/12/01 19:52:33;;;;;;;72.73;26.90;;;;;;;;;;4917022;29;20810;-75
2023/12/01 19:55:00;;;;;;;92.97;31.93;;;;;;;;;;4916504;29;20620;-74
2023/12/01 19:57:26;;;;;;;83.40;29.63;;;;;;;;;;4923129;29;20500;-74
2023/12/01 19:59:52;;;;;;;66.73;25.57;;;;;;;;;;4935112;29;20564;-74
2023/12/01 20:02:19;;;;;;;71.40;27.30;;;;;;;;;;4950744;29;20491;-76
2023/12/01 20:04:45;;;;;;;77.30;29.50;;;;;;;;;;4938400;29;20437;-76
2023/12/01 20:07:11;;;;;;;71.90;25.83;;;;;;;;;;4935114;29;20449;-74
2023/12/01 20:09:37;;;;;;;71.80;24.80;;;;;;;;;;4926451;29;20457;-73
2023/12/01 20:12:03;;;;;;;63.10;24.07;;;;;;;;;;4936036;29;20763;-74
2023/12/01 20:14:31;;;;;;;66.20;24.00;;;;;;;;;;4935511;29;20945;-74
2023/12/01 20:16:57;;;;;;;70.43;27.87;;;;;;;;;;4935604;29;20504;-76
2023/12/01 20:19:23;;;;;;;64.73;26.03;;;;;;;;;;4923584;29;20786;-75